Montford, Virginia
Current Conditions -  °F | °C
As of 6:55 PM on Wednesday 22 Oct 2014 (Local Time) from KOMH Reporting Station
Scattered Clouds Scattered Clouds  
Wind Chill: 55°   Ceiling: Unl
Heat Index: 55°   Visibility: 10mi
Dew Point: 45°   Wind: 7mph
Humidity: 67%   Direction: 290°WNW
Pressure: 30"   Gusts: NA
Location:  38.216°N, 78.057°W
Report Text: KOMH 222255Z AUTO 29006KT 10SM SCT110 13/07 A3000 RMK AO2 LTG DSNT E
Loading
Personal Weather Stations






























Interactive Weather Map
Tropical Storm Tracking
New forecast layout! Learn more

10-Day Weather Forecast

Advertisements
Track Severe Weather on mobile